Terminal Aerodrome Forecast
Issued by NWS Houston/Galveston, TX

Home | Current Version | Previous Version | Text Only | Print | Product List | Glossary On
Versions: 1 2 3 4 5 6 7 8 9 10 11 12 13 14 15 16 17 18 19 20 21 22 23 24
000
FTUS44 KHGX 261138
TAFCLL
TAF
KCLL 261138Z 2612/2712 03006KT P6SM SCT006
      TEMPO 2612/2614 4SM BR BKN006
     FM261400 02008KT P6SM BKN015 BKN150
     FM262100 01011KT P6SM VCSH SCT040 BKN150
     FM270100 01008KT P6SM FEW040 OVC150
     FM270900 02006KT P6SM SCT015 BKN050=

USA.gov is the U.S. government's official web portal to all federal, state and local government web resources and services.